Time;durP1;ratioP1;P1;durP2;ratioP2;P2;SDS_P1;SDS_P2;PMS_P1;PMS_P2;Temp;Humidity;BMP_temperature;BMP_pressure;BME280_temperature;BME280_humidity;BME280_pressure;Samples;Min_cycle;Max_cycle;Signal;HPM_P1;HPM_P2
2024/01/16 00:01:42;;;;;;;114.13;55.88;;;;;;;1.35;100.00;98789.78;5091048;28;20078;-78
2024/01/16 00:04:08;;;;;;;97.35;49.58;;;;;;;1.39;100.00;98775.28;5086807;28;20055;-76
2024/01/16 00:06:33;;;;;;;99.32;49.67;;;;;;;1.48;100.00;98787.25;5070242;28;20033;-76
2024/01/16 00:08:58;;;;;;;84.88;46.05;;;;;;;1.40;100.00;98761.13;5070888;28;20032;-76
2024/01/16 00:11:24;;;;;;;85.45;44.83;;;;;;;1.33;100.00;98757.66;5052794;28;20047;-76
2024/01/16 00:13:49;;;;;;;94.30;48.08;;;;;;;1.35;100.00;98779.28;5071665;28;20127;-77
2024/01/16 00:16:15;;;;;;;93.32;49.08;;;;;;;1.42;100.00;98772.25;5072165;28;20032;-77
2024/01/16 00:18:41;;;;;;;88.93;46.13;;;;;;;1.47;100.00;98764.63;5070187;28;20033;-76
2024/01/16 00:21:06;;;;;;;93.97;47.25;;;;;;;1.37;100.00;98751.00;5070640;28;20186;-76
2024/01/16 00:23:32;;;;;;;84.68;46.13;;;;;;;1.36;100.00;98752.00;5070169;28;20025;-78
2024/01/16 00:25:57;;;;;;;84.50;44.90;;;;;;;1.36;100.00;98763.31;5087496;28;20110;-77
2024/01/16 00:28:23;;;;;;;93.30;45.70;;;;;;;1.56;100.00;98767.91;5091260;28;20688;-76
2024/01/16 00:30:48;;;;;;;88.10;46.15;;;;;;;1.63;100.00;98763.47;5088567;28;20024;-77
2024/01/16 00:33:14;;;;;;;86.32;44.25;;;;;;;1.69;100.00;98756.66;5069987;28;20024;-76
2024/01/16 00:35:39;;;;;;;89.10;45.95;;;;;;;1.58;100.00;98758.81;5083163;28;20042;-78
2024/01/16 00:38:04;;;;;;;89.20;43.30;;;;;;;1.30;100.00;98727.31;5072344;28;20024;-77
2024/01/16 00:40:30;;;;;;;91.82;46.30;;;;;;;1.45;100.00;98739.53;5090355;28;20024;-77
2024/01/16 00:42:55;;;;;;;87.68;45.35;;;;;;;1.61;100.00;98754.97;5089631;28;20482;-77
2024/01/16 00:45:21;;;;;;;91.38;45.45;;;;;;;1.60;100.00;98740.22;5088572;28;20125;-77
2024/01/16 00:47:46;;;;;;;83.60;43.92;;;;;;;1.58;100.00;98755.38;5090170;28;20027;-76
2024/01/16 00:50:12;;;;;;;88.05;46.17;;;;;;;1.62;100.00;98769.75;5090291;28;20032;-77
2024/01/16 00:52:38;;;;;;;86.60;46.38;;;;;;;1.52;100.00;98767.47;5072044;28;20035;-77
2024/01/16 00:55:04;;;;;;;115.93;55.30;;;;;;;1.52;100.00;98762.22;5085151;28;20032;-77
2024/01/16 00:57:29;;;;;;;481.95;249.10;;;;;;;1.42;100.00;98764.38;5069162;28;20033;-76
2024/01/16 00:59:55;;;;;;;197.57;99.00;;;;;;;1.49;100.00;98767.03;5068975;28;20043;-77
2024/01/16 01:02:20;;;;;;;78.97;43.30;;;;;;;1.57;100.00;98769.50;5069432;28;20032;-76
2024/01/16 01:04:45;;;;;;;74.13;41.13;;;;;;;1.32;100.00;98742.88;5072163;28;20028;-76
2024/01/16 01:07:14;;;;;;;84.50;43.05;;;;;;;1.50;100.00;98748.44;5069829;28;20025;-76
2024/01/16 01:09:40;;;;;;;140.68;67.45;;;;;;;1.45;100.00;98750.84;5069337;28;20036;-76
2024/01/16 01:12:06;;;;;;;142.60;65.00;;;;;;;1.38;100.00;98744.75;5069341;28;20083;-77
2024/01/16 01:14:31;;;;;;;93.28;47.03;;;;;;;1.49;100.00;98746.00;5069833;28;20044;-77
2024/01/16 01:16:57;;;;;;;96.47;49.08;;;;;;;1.33;100.00;98731.38;5071275;28;20039;-78
2024/01/16 01:19:22;;;;;;;86.78;44.45;;;;;;;1.20;100.00;98727.63;5051292;28;20021;-77
2024/01/16 01:21:49;;;;;;;84.93;45.22;;;;;;;1.15;100.00;98706.41;5069132;28;20023;-76
2024/01/16 01:24:14;;;;;;;89.95;49.35;;;;;;;1.36;100.00;98707.34;5068876;28;20032;-77
2024/01/16 01:26:43;;;;;;;91.82;46.17;;;;;;;1.17;100.00;98701.78;5088424;28;20739;-78
2024/01/16 01:29:08;;;;;;;94.40;47.10;;;;;;;1.18;100.00;98706.00;5089057;28;20089;-76
2024/01/16 01:31:34;;;;;;;87.38;44.55;;;;;;;0.97;100.00;98701.63;5088138;28;20028;-77
2024/01/16 01:33:59;;;;;;;77.32;42.45;;;;;;;0.97;100.00;98696.38;5069507;28;20032;-77
2024/01/16 01:36:24;;;;;;;84.38;43.55;;;;;;;1.06;100.00;98707.53;5084587;28;20031;-76
2024/01/16 01:38:50;;;;;;;87.88;44.22;;;;;;;1.03;100.00;98715.00;5089558;28;20126;-76
2024/01/16 01:41:16;;;;;;;83.70;42.78;;;;;;;0.87;100.00;98703.75;5089467;28;20472;-77
2024/01/16 01:43:42;;;;;;;82.38;44.20;;;;;;;0.91;100.00;98709.44;5070952;28;20056;-76
2024/01/16 01:46:14;;;;;;;83.50;45.28;;;;;;;0.84;100.00;98690.19;5079815;28;20036;-77
2024/01/16 01:48:41;;;;;;;87.40;45.33;;;;;;;0.78;100.00;98673.41;5088824;28;20020;-76
2024/01/16 01:51:08;;;;;;;86.75;44.00;;;;;;;0.93;100.00;98696.94;5070831;28;20028;-76
2024/01/16 01:53:35;;;;;;;82.97;43.80;;;;;;;0.86;100.00;98706.56;5073079;28;20032;-77
2024/01/16 01:56:05;;;;;;;90.35;46.65;;;;;;;1.03;100.00;98721.06;5071512;28;20040;-77
2024/01/16 01:58:32;;;;;;;88.45;45.33;;;;;;;0.91;100.00;98701.56;5068970;28;20062;-78
2024/01/16 02:00:58;;;;;;;110.68;52.05;;;;;;;0.60;100.00;98700.91;5050025;28;20092;-77
2024/01/16 02:03:27;;;;;;;86.78;45.08;;;;;;;0.60;100.00;98707.97;5050624;28;20051;-77
2024/01/16 02:05:52;;;;;;;94.72;49.22;;;;;;;0.59;100.00;98687.97;5075299;28;20020;-76
2024/01/16 02:08:18;;;;;;;88.70;46.40;;;;;;;0.50;100.00;98694.34;5088484;28;20074;-77
2024/01/16 02:10:47;;;;;;;93.07;48.08;;;;;;;0.66;100.00;98715.09;5089591;28;20028;-77
2024/01/16 02:13:13;;;;;;;103.78;49.63;;;;;;;0.47;100.00;98695.56;5078488;28;20081;-76
2024/01/16 02:15:41;;;;;;;108.82;50.33;;;;;;;0.46;100.00;98703.59;5072529;28;20039;-76
2024/01/16 02:18:06;;;;;;;95.50;47.45;;;;;;;0.42;100.00;98703.16;5090069;28;20059;-76
2024/01/16 02:20:32;;;;;;;87.05;44.33;;;;;;;0.03;100.00;98703.56;5090245;28;20072;-77
2024/01/16 02:23:03;;;;;;;96.93;48.83;;;;;;;-0.07;100.00;98714.31;5082301;28;20028;-77
2024/01/16 02:25:29;;;;;;;92.90;47.67;;;;;;;0.10;100.00;98699.19;5081526;28;20032;-77
2024/01/16 02:27:55;;;;;;;96.90;52.25;;;;;;;0.38;100.00;98717.63;5084263;28;20024;-76
2024/01/16 02:30:20;;;;;;;85.53;45.20;;;;;;;0.42;100.00;98718.88;5100881;28;20039;-77
2024/01/16 02:32:45;;;;;;;93.68;48.15;;;;;;;0.19;100.00;98703.31;5095971;28;20024;-78
2024/01/16 02:35:11;;;;;;;77.97;42.55;;;;;;;0.28;100.00;98727.63;5062350;28;20025;-77
2024/01/16 02:37:36;;;;;;;80.25;41.75;;;;;;;0.13;100.00;98733.72;5081025;28;20028;-77
2024/01/16 02:40:05;;;;;;;85.78;42.67;;;;;;;0.37;100.00;98732.56;5063225;28;20028;-78
2024/01/16 02:42:34;;;;;;;81.05;43.10;;;;;;;0.36;100.00;98738.78;5061867;28;20033;-77
2024/01/16 02:44:59;;;;;;;;;;;;;;;0.31;100.00;98743.81;5059101;28;20025;-77
2024/01/16 02:47:24;;;;;;;85.68;43.28;;;;;;;0.21;100.00;98740.66;5060505;28;20795;-76
2024/01/16 02:49:50;;;;;;;86.80;43.20;;;;;;;0.15;100.00;98744.03;5076528;28;20029;-77
2024/01/16 02:52:15;;;;;;;81.07;42.42;;;;;;;0.29;100.00;98750.22;5076929;28;20312;-77
2024/01/16 02:54:41;;;;;;;87.28;42.72;;;;;;;0.23;100.00;98740.47;5075435;28;20041;-77
2024/01/16 02:57:06;;;;;;;79.15;41.70;;;;;;;0.23;100.00;98741.28;5087957;28;20050;-76
2024/01/16 02:59:32;;;;;;;83.25;42.80;;;;;;;0.29;100.00;98748.41;5076778;28;20020;-77
2024/01/16 03:01:57;;;;;;;82.45;43.03;;;;;;;0.17;100.00;98748.06;5094227;28;20031;-77
2024/01/16 03:04:23;;;;;;;85.80;41.63;;;;;;;0.26;100.00;98740.91;5076367;28;20037;-77
2024/01/16 03:06:48;;;;;;;77.32;40.17;;;;;;;0.34;100.00;98750.47;5073285;28;20021;-76
2024/01/16 03:09:14;;;;;;;75.35;42.05;;;;;;;-0.12;100.00;98743.69;5051603;28;20390;-78
2024/01/16 03:11:39;;;;;;;90.07;47.38;;;;;;;-0.25;100.00;98744.31;5075382;28;20032;-77
2024/01/16 03:14:05;;;;;;;80.43;41.47;;;;;;;-0.51;100.00;98768.38;5088432;28;20043;-77
2024/01/16 03:16:31;;;;;;;75.78;40.03;;;;;;;-0.71;100.00;98762.00;5085375;28;20627;-78
2024/01/16 03:18:57;;;;;;;81.32;40.55;;;;;;;-0.49;100.00;98763.75;5070141;28;20059;-78
2024/01/16 03:21:23;;;;;;;80.57;40.67;;;;;;;-0.38;100.00;98754.63;5072376;28;20485;-77
2024/01/16 03:23:48;;;;;;;79.93;42.13;;;;;;;-0.15;100.00;98772.88;5072165;28;20086;-77
2024/01/16 03:26:14;;;;;;;97.80;48.30;;;;;;;-0.10;100.00;98794.13;5073000;28;20027;-77
2024/01/16 03:28:40;;;;;;;113.70;51.55;;;;;;;-0.03;100.00;98794.19;5092048;28;20040;-76
2024/01/16 03:31:06;;;;;;;93.18;47.20;;;;;;;-0.05;100.00;98773.41;5091619;28;20032;-77
2024/01/16 03:33:31;;;;;;;85.38;42.70;;;;;;;0.01;100.00;98755.34;5091467;28;20035;-77
2024/01/16 03:35:56;;;;;;;84.30;44.05;;;;;;;0.12;100.00;98775.81;5091866;28;20020;-77
2024/01/16 03:38:22;;;;;;;84.47;43.10;;;;;;;-0.19;100.00;98784.72;5057775;28;20035;-77
2024/01/16 03:40:47;;;;;;;81.70;43.60;;;;;;;-0.39;100.00;98773.94;5071245;28;20024;-77
2024/01/16 03:43:13;;;;;;;79.55;42.50;;;;;;;-0.63;100.00;98752.28;5071139;28;20703;-78
2024/01/16 03:45:39;;;;;;;85.78;40.35;;;;;;;-0.88;100.00;98764.78;5071320;28;20524;-78
2024/01/16 03:48:04;;;;;;;77.85;41.10;;;;;;;-0.55;100.00;98774.94;5067428;28;20515;-77
2024/01/16 03:50:30;;;;;;;86.47;42.10;;;;;;;-0.25;100.00;98785.44;5073426;28;20028;-77
2024/01/16 03:52:55;;;;;;;77.38;41.17;;;;;;;-0.82;100.00;98771.94;5091395;28;20472;-76
2024/01/16 03:55:21;;;;;;;84.13;40.10;;;;;;;-0.96;100.00;98736.06;5073768;28;20025;-76
2024/01/16 03:57:46;;;;;;;77.47;40.85;;;;;;;-0.41;100.00;98776.78;5074393;28;20025;-76
2024/01/16 04:00:12;;;;;;;83.60;42.15;;;;;;;-0.46;100.00;98760.75;5053235;28;20553;-77
2024/01/16 04:02:38;;;;;;;78.60;42.03;;;;;;;-0.39;100.00;98767.91;5053469;28;20527;-78
2024/01/16 04:05:04;;;;;;;79.40;41.38;;;;;;;-0.39;100.00;98757.44;5071373;28;20052;-78
2024/01/16 04:07:29;;;;;;;82.20;41.22;;;;;;;-0.14;100.00;98789.41;5073508;28;20124;-78
2024/01/16 04:09:55;;;;;;;82.00;40.75;;;;;;;-0.26;100.00;98755.00;5070739;28;20040;-77
2024/01/16 04:12:21;;;;;;;80.93;41.53;;;;;;;-0.08;100.00;98791.28;5071429;28;20041;-78
2024/01/16 04:14:46;;;;;;;78.68;41.35;;;;;;;-0.09;100.00;98806.22;5070976;28;20044;-78
2024/01/16 04:17:12;;;;;;;78.47;39.50;;;;;;;-0.16;100.00;98815.81;5055608;28;20032;-77
2024/01/16 04:19:37;;;;;;;73.63;39.97;;;;;;;-0.22;100.00;98808.66;5070551;28;20634;-76
2024/01/16 04:22:04;;;;;;;77.63;40.75;;;;;;;-0.16;100.00;98842.00;5070198;28;20029;-78
2024/01/16 04:24:30;;;;;;;82.65;42.53;;;;;;;-0.24;100.00;98824.56;5070047;28;20450;-76
2024/01/16 04:26:55;;;;;;;87.45;47.45;;;;;;;-0.18;100.00;98814.34;5071206;28;20063;-76
2024/01/16 04:29:21;;;;;;;103.47;53.72;;;;;;;0.03;100.00;98818.88;5091076;28;20059;-77
2024/01/16 04:31:46;;;;;;;91.78;49.67;;;;;;;0.20;100.00;98857.00;5072096;28;20136;-77
2024/01/16 04:34:12;;;;;;;79.57;41.55;;;;;;;0.32;100.00;98868.66;5086353;28;20660;-76
2024/01/16 04:36:37;;;;;;;93.03;44.00;;;;;;;0.05;100.00;98832.63;5070855;28;20020;-77
2024/01/16 04:39:03;;;;;;;83.68;44.65;;;;;;;0.36;100.00;98859.44;5056749;28;20025;-77
2024/01/16 04:41:29;;;;;;;91.60;48.42;;;;;;;0.24;100.00;98842.53;5052813;28;20028;-76
2024/01/16 04:43:54;;;;;;;91.78;51.78;;;;;;;0.37;100.00;98868.94;5070675;28;20055;-77
2024/01/16 04:46:20;;;;;;;84.57;43.03;;;;;;;0.35;100.00;98855.19;5052257;28;20033;-77
2024/01/16 04:48:45;;;;;;;82.30;40.85;;;;;;;0.49;100.00;98861.44;5072247;28;20445;-78
2024/01/16 04:51:11;;;;;;;78.22;40.17;;;;;;;0.49;100.00;98871.09;5051628;28;20523;-77
2024/01/16 04:53:36;;;;;;;88.93;43.08;;;;;;;0.36;100.00;98862.06;5070306;28;20028;-77
2024/01/16 04:56:02;;;;;;;79.25;40.58;;;;;;;0.43;100.00;98893.63;5086378;28;20074;-77
2024/01/16 04:58:27;;;;;;;79.05;41.22;;;;;;;0.31;100.00;98874.09;5062721;28;20425;-77
2024/01/16 05:00:53;;;;;;;75.68;42.45;;;;;;;0.52;100.00;98889.91;5052184;28;20031;-78
2024/01/16 05:03:18;;;;;;;84.07;39.72;;;;;;;0.46;100.00;98881.97;5068631;28;20086;-78
2024/01/16 05:05:44;;;;;;;78.28;38.53;;;;;;;0.33;100.00;98885.22;5069366;28;20473;-77
2024/01/16 05:08:09;;;;;;;78.40;40.90;;;;;;;0.17;100.00;98863.44;5072166;28;20456;-77
2024/01/16 05:10:34;;;;;;;74.50;36.83;;;;;;;0.32;100.00;98900.13;5069283;28;20036;-77
2024/01/16 05:13:00;;;;;;;72.55;37.30;;;;;;;0.22;100.00;98870.75;5068801;28;20017;-77
2024/01/16 05:15:26;;;;;;;77.07;39.60;;;;;;;0.37;100.00;98913.53;5068841;28;20045;-78
2024/01/16 05:17:53;;;;;;;73.93;38.45;;;;;;;0.47;100.00;98904.56;5071118;28;20516;-77
2024/01/16 05:20:18;;;;;;;70.22;36.63;;;;;;;0.70;100.00;98926.25;5074586;28;20032;-78
2024/01/16 05:22:44;;;;;;;76.40;40.25;;;;;;;0.66;100.00;98911.06;5060985;28;20128;-78
2024/01/16 05:25:10;;;;;;;74.75;39.10;;;;;;;0.54;100.00;98902.84;5061981;28;20024;-80
2024/01/16 05:27:35;;;;;;;98.72;49.85;;;;;;;0.75;100.00;98913.38;5079035;28;20482;-77
2024/01/16 05:30:01;;;;;;;83.85;43.17;;;;;;;0.57;100.00;98905.09;5061623;28;20040;-79
2024/01/16 05:32:27;;;;;;;69.72;37.95;;;;;;;0.68;100.00;98941.38;5077502;28;20072;-78
2024/01/16 05:34:52;;;;;;;67.93;34.97;;;;;;;0.77;100.00;98958.63;5079386;28;20043;-77
2024/01/16 05:37:19;;;;;;;102.63;57.58;;;;;;;0.70;100.00;98957.75;5077248;28;20101;-77
2024/01/16 05:39:44;;;;;;;91.55;51.65;;;;;;;0.54;100.00;98968.44;5085092;28;20469;-77
2024/01/16 05:42:11;;;;;;;78.60;46.25;;;;;;;0.34;100.00;98953.22;5069633;28;20032;-78
2024/01/16 05:44:36;;;;;;;78.85;41.88;;;;;;;0.54;100.00;98968.44;5070125;28;20451;-77
2024/01/16 05:47:02;;;;;;;79.75;41.85;;;;;;;0.31;100.00;98969.31;5068721;28;20059;-78
2024/01/16 05:49:27;;;;;;;82.60;44.50;;;;;;;0.07;100.00;98956.44;5081696;28;20040;-78
2024/01/16 05:51:53;;;;;;;79.57;42.58;;;;;;;0.26;100.00;98987.38;5088924;28;20106;-77
2024/01/16 05:54:18;;;;;;;78.90;41.40;;;;;;;0.46;100.00;99013.09;5070647;28;20109;-78
2024/01/16 05:56:43;;;;;;;71.22;39.70;;;;;;;0.25;100.00;98998.88;5070958;28;20078;-78
2024/01/16 05:59:09;;;;;;;61.22;34.13;;;;;;;0.33;100.00;99025.03;5070813;28;20051;-78
2024/01/16 06:01:34;;;;;;;72.70;35.47;;;;;;;0.19;100.00;99007.47;5068120;28;20068;-78
2024/01/16 06:04:00;;;;;;;60.95;33.20;;;;;;;0.33;100.00;99035.53;5068060;28;20115;-79
2024/01/16 06:06:25;;;;;;;64.75;33.17;;;;;;;0.49;100.00;99060.78;5067843;28;20029;-78
2024/01/16 06:08:52;;;;;;;66.18;33.25;;;;;;;1.23;100.00;99036.34;5070568;28;20032;-79
2024/01/16 06:11:19;;;;;;;58.30;31.85;;;;;;;1.55;100.00;99016.72;5068130;28;20024;-78
2024/01/16 06:13:45;;;;;;;58.13;33.05;;;;;;;1.99;100.00;99060.41;5068409;28;20044;-78
2024/01/16 06:16:10;;;;;;;58.35;31.35;;;;;;;2.59;98.68;99062.72;5068030;28;20063;-78
2024/01/16 06:18:36;;;;;;;60.72;32.95;;;;;;;2.58;100.00;99087.44;5052660;28;20416;-78
2024/01/16 06:21:03;;;;;;;73.78;40.75;;;;;;;1.24;100.00;99071.31;5067941;28;20059;-78
2024/01/16 06:23:29;;;;;;;136.05;55.53;;;;;;;-0.01;100.00;99065.59;5050150;28;20068;-77
2024/01/16 06:25:54;;;;;;;190.93;75.32;;;;;;;-0.19;100.00;99104.38;5067477;28;20087;-78
2024/01/16 06:28:19;;;;;;;102.38;47.50;;;;;;;0.59;100.00;99111.19;5067923;28;20693;-78
2024/01/16 06:30:45;;;;;;;74.18;37.58;;;;;;;0.18;100.00;99094.97;5071394;28;20043;-79
2024/01/16 06:33:10;;;;;;;68.20;35.63;;;;;;;0.65;100.00;99107.03;5067800;28;20509;-77
2024/01/16 06:35:36;;;;;;;66.10;35.72;;;;;;;1.09;100.00;99097.59;5049825;28;20028;-77
2024/01/16 06:38:01;;;;;;;67.80;37.50;;;;;;;1.68;100.00;99136.13;5049588;28;20044;-78
2024/01/16 06:40:27;;;;;;;72.55;39.15;;;;;;;2.07;100.00;99154.16;5083470;28;20500;-78
2024/01/16 06:42:52;;;;;;;72.93;39.33;;;;;;;1.83;100.00;99147.41;5088119;28;20055;-76
2024/01/16 06:45:19;;;;;;;72.07;38.53;;;;;;;2.54;100.00;99160.69;5068862;28;20028;-78
2024/01/16 06:47:44;;;;;;;73.88;40.00;;;;;;;2.05;100.00;99161.41;5069352;28;20119;-77
2024/01/16 06:50:09;;;;;;;69.50;39.45;;;;;;;2.23;100.00;99153.13;5076804;28;20031;-77
2024/01/16 06:52:35;;;;;;;69.05;38.15;;;;;;;2.73;100.00;99169.75;5049675;28;20067;-77
2024/01/16 06:55:00;;;;;;;71.32;37.10;;;;;;;2.41;100.00;99177.19;5071652;28;20103;-77
2024/01/16 06:57:27;;;;;;;69.25;37.60;;;;;;;2.78;100.00;99146.31;5071477;28;20029;-77
2024/01/16 06:59:52;;;;;;;62.50;35.42;;;;;;;2.13;100.00;99179.72;5080624;28;20028;-77
2024/01/16 07:02:18;;;;;;;63.05;35.95;;;;;;;1.69;100.00;99177.16;5091948;28;20024;-77
2024/01/16 07:04:43;;;;;;;65.75;37.13;;;;;;;2.04;100.00;99175.56;5091484;28;20028;-77
2024/01/16 07:07:08;;;;;;;62.70;35.17;;;;;;;2.92;100.00;99199.91;5092061;28;20032;-77
2024/01/16 07:09:34;;;;;;;64.93;34.80;;;;;;;2.91;100.00;99198.25;5089566;28;20043;-77
2024/01/16 07:11:59;;;;;;;53.05;32.63;;;;;;;3.44;97.51;99213.63;5081587;28;20447;-77
2024/01/16 07:14:25;;;;;;;50.50;29.58;;;;;;;3.16;95.21;99214.44;5063856;28;20076;-77
2024/01/16 07:16:50;;;;;;;52.22;29.92;;;;;;;4.30;94.00;99213.22;5082183;28;20417;-76
2024/01/16 07:19:16;;;;;;;45.63;27.20;;;;;;;4.68;85.47;99223.25;5082250;28;20035;-77
2024/01/16 07:21:42;;;;;;;58.70;35.50;;;;;;;4.42;83.98;99247.75;5070786;28;20052;-77
2024/01/16 07:24:07;;;;;;;54.42;32.30;;;;;;;4.31;87.85;99235.97;5069740;28;20024;-77
2024/01/16 07:26:34;;;;;;;51.88;30.05;;;;;;;4.26;87.04;99254.22;5073227;28;20021;-78
2024/01/16 07:28:59;;;;;;;51.60;31.25;;;;;;;4.87;83.67;99241.97;5082027;28;20039;-78
2024/01/16 07:31:25;;;;;;;46.92;28.98;;;;;;;4.72;83.64;99253.53;5066645;28;20021;-77
2024/01/16 07:33:51;;;;;;;48.78;29.25;;;;;;;4.65;85.10;99254.53;5080898;28;20079;-77
2024/01/16 07:36:16;;;;;;;47.97;29.15;;;;;;;4.72;82.75;99242.13;5072151;28;20502;-77
2024/01/16 07:38:41;;;;;;;47.83;28.17;;;;;;;4.78;83.63;99273.84;5091310;28;20028;-76
2024/01/16 07:41:07;;;;;;;51.25;29.90;;;;;;;4.54;86.15;99277.06;5088999;28;20093;-76
2024/01/16 07:43:33;;;;;;;47.50;28.33;;;;;;;4.66;84.84;99291.31;5091160;28;20070;-77
2024/01/16 07:45:58;;;;;;;52.08;31.70;;;;;;;5.06;82.98;99291.34;5090788;28;20024;-77
2024/01/16 07:48:24;;;;;;;92.32;48.00;;;;;;;4.59;84.30;99290.47;5091094;28;20111;-77
2024/01/16 07:50:49;;;;;;;86.38;48.03;;;;;;;4.48;85.68;99306.88;5090787;28;20039;-77
2024/01/16 07:53:15;;;;;;;74.18;42.00;;;;;;;4.58;90.28;99320.53;5090878;28;20050;-77
2024/01/16 07:55:43;;;;;;;63.42;37.70;;;;;;;5.35;82.74;99299.91;5090941;28;20028;-77
2024/01/16 07:58:12;;;;;;;;;;;;;;;6.88;75.95;99341.88;5086152;28;20138;-78
2024/01/16 08:00:38;;;;;;;46.13;26.73;;;;;;;6.44;77.14;99341.69;5070986;28;19959;-77
2024/01/16 08:03:04;;;;;;;57.13;33.72;;;;;;;6.62;76.92;99356.09;5072389;28;20040;-77
2024/01/16 08:05:30;;;;;;;52.63;31.98;;;;;;;6.91;74.55;99372.47;5089766;28;20056;-77
2024/01/16 08:07:56;;;;;;;43.25;25.17;;;;;;;7.39;71.91;99346.25;5090552;28;20063;-77
2024/01/16 08:10:22;;;;;;;41.40;22.75;;;;;;;7.47;68.21;99386.81;5071447;28;20427;-77
2024/01/16 08:12:47;;;;;;;40.15;23.02;;;;;;;7.42;69.21;99384.81;5072404;28;20023;-77
2024/01/16 08:15:13;;;;;;;48.10;26.60;;;;;;;7.57;70.30;99387.94;5090342;28;20047;-77
2024/01/16 08:17:39;;;;;;;63.75;33.15;;;;;;;7.61;68.13;99388.34;5063170;28;20123;-77
2024/01/16 08:20:05;;;;;;;56.22;28.63;;;;;;;8.29;69.39;99379.53;5072062;28;20508;-77
2024/01/16 08:22:31;;;;;;;40.55;22.65;;;;;;;8.75;65.88;99383.56;5089993;28;20520;-77
2024/01/16 08:24:56;;;;;;;45.53;24.00;;;;;;;8.01;68.16;99372.88;5071752;28;20039;-77
2024/01/16 08:27:22;;;;;;;36.10;19.77;;;;;;;7.99;67.81;99380.25;5090138;28;20032;-77
2024/01/16 08:29:49;;;;;;;33.00;19.38;;;;;;;8.01;70.17;99378.19;5090458;28;20032;-77
2024/01/16 08:32:16;;;;;;;59.83;31.02;;;;;;;8.58;69.41;99403.78;5089131;28;20028;-77
2024/01/16 08:34:41;;;;;;;66.20;33.05;;;;;;;8.45;68.54;99407.41;5072094;28;20066;-76
2024/01/16 08:37:06;;;;;;;60.72;30.63;;;;;;;8.93;67.42;99419.94;5072007;28;20221;-77
2024/01/16 08:39:33;;;;;;;49.13;24.42;;;;;;;8.59;66.55;99411.53;5087289;28;20035;-78
2024/01/16 08:41:59;;;;;;;40.80;23.40;;;;;;;8.10;67.64;99417.75;5063617;28;20067;-76
2024/01/16 08:44:25;;;;;;;40.72;22.77;;;;;;;8.60;65.55;99428.31;5079791;28;20107;-76
2024/01/16 08:46:50;;;;;;;44.35;22.45;;;;;;;8.55;68.15;99413.03;5060334;28;20025;-77
2024/01/16 08:49:16;;;;;;;33.17;19.40;;;;;;;8.60;66.77;99422.97;5062751;28;20481;-77
2024/01/16 08:51:41;;;;;;;31.77;19.48;;;;;;;8.84;70.02;99440.69;5078051;28;20059;-77
2024/01/16 08:54:07;;;;;;;37.95;22.23;;;;;;;9.04;67.27;99442.31;5079724;28;20031;-78
2024/01/16 08:56:32;;;;;;;35.65;20.67;;;;;;;8.85;66.77;99431.69;5078690;28;20135;-77
2024/01/16 08:58:58;;;;;;;48.85;25.40;;;;;;;9.01;69.33;99453.38;5069160;28;20082;-77
2024/01/16 09:01:23;;;;;;;43.40;23.05;;;;;;;9.10;65.99;99460.03;5080742;28;20032;-77
2024/01/16 09:03:48;;;;;;;36.03;19.52;;;;;;;8.59;68.89;99447.94;5078345;28;20111;-76
2024/01/16 09:06:14;;;;;;;31.38;17.75;;;;;;;9.02;68.76;99455.03;5080071;28;20439;-76
2024/01/16 09:08:39;;;;;;;24.75;17.42;;;;;;;9.34;68.91;99460.16;5079638;28;20028;-76
2024/01/16 09:11:04;;;;;;;17.90;11.63;;;;;;;9.63;65.80;99450.53;5079363;28;20024;-77
2024/01/16 09:13:30;;;;;;;18.23;12.45;;;;;;;9.89;65.81;99467.94;5077267;28;20572;-76
2024/01/16 09:15:55;;;;;;;16.38;10.25;;;;;;;8.98;69.15;99461.81;5078778;28;20048;-76
2024/01/16 09:18:21;;;;;;;15.13;9.05;;;;;;;9.75;68.58;99463.88;5088892;28;20543;-77
2024/01/16 09:20:46;;;;;;;13.18;8.68;;;;;;;9.83;66.09;99471.53;5087178;28;20032;-76
2024/01/16 09:23:12;;;;;;;12.25;7.60;;;;;;;9.64;68.46;99484.91;5088502;28;20039;-76
2024/01/16 09:25:39;;;;;;;12.63;7.72;;;;;;;9.79;66.80;99484.47;5088954;28;20055;-76
2024/01/16 09:28:04;;;;;;;12.00;7.80;;;;;;;10.24;66.71;99477.84;5083528;28;20024;-76
2024/01/16 09:30:30;;;;;;;10.77;6.32;;;;;;;10.16;64.59;99471.00;5050217;28;20040;-77
2024/01/16 09:32:55;;;;;;;7.72;5.32;;;;;;;9.93;65.65;99458.47;5071002;28;20028;-76
2024/01/16 09:35:22;;;;;;;9.40;6.20;;;;;;;9.88;65.98;99466.31;5050737;28;20479;-75
2024/01/16 09:37:47;;;;;;;9.80;5.85;;;;;;;10.59;65.89;99469.06;5068471;28;20025;-77
2024/01/16 09:40:13;;;;;;;8.23;4.88;;;;;;;10.26;62.51;99481.09;5068419;28;20034;-77
2024/01/16 09:42:40;;;;;;;8.63;5.30;;;;;;;10.13;65.41;99474.09;5084149;28;20032;-76
2024/01/16 09:45:06;;;;;;;9.10;5.20;;;;;;;10.41;64.88;99470.78;5088582;28;20067;-76
2024/01/16 09:47:33;;;;;;;7.00;4.03;;;;;;;10.28;62.34;99481.66;5070346;28;20016;-77
2024/01/16 09:50:03;;;;;;;10.02;4.78;;;;;;;10.52;61.61;99501.19;5051548;28;20511;-76
2024/01/16 09:52:29;;;;;;;7.45;4.47;;;;;;;10.40;63.40;99489.66;5080410;28;20061;-75
2024/01/16 09:54:55;;;;;;;8.52;4.18;;;;;;;10.60;62.00;99503.50;5088661;28;20028;-76
2024/01/16 09:57:25;;;;;;;7.18;4.18;;;;;;;10.33;60.42;99520.97;5088375;28;20020;-76
2024/01/16 09:59:51;;;;;;;5.90;3.58;;;;;;;10.54;59.57;99500.94;5088420;28;20036;-75
2024/01/16 10:02:19;;;;;;;5.38;3.50;;;;;;;11.30;58.13;99506.25;5087553;28;20039;-76
2024/01/16 10:04:44;;;;;;;5.57;3.67;;;;;;;11.15;59.28;99512.09;5088352;28;20036;-76
2024/01/16 10:07:11;;;;;;;8.55;3.75;;;;;;;10.77;57.73;99516.94;5088585;28;20089;-76
2024/01/16 10:09:38;;;;;;;5.63;3.00;;;;;;;10.81;57.83;99518.06;5088281;28;20042;-76
2024/01/16 10:12:05;;;;;;;5.68;3.10;;;;;;;10.78;54.46;99523.88;5082298;28;20270;-77
2024/01/16 10:14:30;;;;;;;7.10;3.78;;;;;;;10.31;54.21;99529.19;5067894;28;20052;-76
2024/01/16 10:17:01;;;;;;;5.03;2.13;;;;;;;10.01;55.29;99514.06;5067908;28;20374;-76
2024/01/16 10:19:29;;;;;;;4.93;2.70;;;;;;;10.59;54.06;99535.72;5067628;28;20032;-76
2024/01/16 10:22:06;;;;;;;4.95;2.50;;;;;;;10.64;52.87;99533.16;5072468;28;20034;-76
2024/01/16 10:24:33;;;;;;;5.13;2.58;;;;;;;10.81;52.20;99539.41;5088185;28;20111;-76
2024/01/16 10:27:06;;;;;;;6.70;4.32;;;;;;;10.65;52.85;99558.78;5069723;28;20028;-76
2024/01/16 10:29:32;;;;;;;9.40;4.15;;;;;;;10.76;52.75;99549.97;5087566;28;20485;-76
2024/01/16 10:31:58;;;;;;;8.25;4.35;;;;;;;10.85;50.21;99558.44;5086315;28;20077;-76
2024/01/16 10:34:24;;;;;;;5.35;2.85;;;;;;;11.17;51.96;99537.50;5067717;28;20762;-76
2024/01/16 10:36:52;;;;;;;5.35;2.10;;;;;;;10.77;50.11;99548.94;5068305;28;20048;-76
2024/01/16 10:39:18;;;;;;;4.90;2.33;;;;;;;10.61;51.26;99545.09;5075568;28;20035;-75
2024/01/16 10:41:55;;;;;;;3.17;2.25;;;;;;;10.52;50.70;99554.50;5087423;28;20492;-76
2024/01/16 10:44:20;;;;;;;5.18;2.20;;;;;;;10.73;51.16;99546.97;5087622;28;20055;-76
2024/01/16 10:46:45;;;;;;;5.45;2.33;;;;;;;11.37;50.41;99546.97;5088083;28;20047;-75
2024/01/16 10:49:11;;;;;;;4.90;2.42;;;;;;;11.16;48.77;99557.25;5081861;28;20025;-75
2024/01/16 10:51:39;;;;;;;2.95;1.65;;;;;;;11.01;49.23;99560.41;5067611;28;20416;-75
2024/01/16 10:54:05;;;;;;;5.35;2.00;;;;;;;10.74;48.74;99554.72;5052141;28;20033;-76
2024/01/16 10:56:31;;;;;;;3.83;2.10;;;;;;;10.97;48.49;99572.59;5067153;28;20024;-77
2024/01/16 10:59:12;;;;;;;5.18;3.03;;;;;;;11.10;48.38;99552.84;5067471;28;20090;-76
2024/01/16 11:01:39;;;;;;;5.18;2.92;;;;;;;11.08;47.64;99554.94;5067029;28;20039;-75
2024/01/16 11:04:06;;;;;;;3.97;1.90;;;;;;;10.95;47.51;99568.50;5086797;28;20043;-75
2024/01/16 11:06:32;;;;;;;4.80;1.98;;;;;;;11.06;48.47;99565.03;5087744;28;20035;-76
2024/01/16 11:08:59;;;;;;;2.92;1.70;;;;;;;10.52;47.20;99580.31;5087768;28;20024;-75
2024/01/16 11:11:28;;;;;;;3.97;1.90;;;;;;;9.91;48.91;99572.41;5087665;28;20020;-75
2024/01/16 11:13:55;;;;;;;4.15;1.92;;;;;;;9.62;48.53;99550.06;5085171;28;20038;-76
2024/01/16 11:16:21;;;;;;;4.07;2.00;;;;;;;9.68;49.35;99577.63;5069281;28;20736;-76